createdAt,value
2022-11-10T00:00:41.269Z,13.02
2022-11-10T00:03:11.115Z,13.00
2022-11-10T00:05:40.594Z,13.00
2022-11-10T00:08:11.313Z,13.02
2022-11-10T00:10:55.110Z,13.07
2022-11-10T00:13:25.201Z,12.96
2022-11-10T00:16:11.287Z,12.86
2022-11-10T00:18:39.392Z,12.92
2022-11-10T00:21:09.301Z,12.84
2022-11-10T00:23:38.386Z,12.86
2022-11-10T00:26:12.967Z,12.90
2022-11-10T00:28:43.074Z,12.97
2022-11-10T00:31:11.897Z,12.96
2022-11-10T00:33:45.551Z,12.95
2022-11-10T00:36:13.682Z,12.92
2022-11-10T00:38:41.925Z,12.94
2022-11-10T00:41:09.988Z,12.91
2022-11-10T00:43:38.292Z,12.90
2022-11-10T00:46:08.141Z,12.99
2022-11-10T00:48:36.685Z,12.99
2022-11-10T00:51:04.853Z,12.96
2022-11-10T00:53:33.412Z,12.86
2022-11-10T00:56:01.583Z,12.87
2022-11-10T00:58:30.059Z,12.86
2022-11-10T01:01:02.451Z,12.93
2022-11-10T01:03:32.578Z,12.78
2022-11-10T01:06:05.829Z,12.83
2022-11-10T01:08:34.032Z,12.79
2022-11-10T01:11:05.858Z,12.78
2022-11-10T01:13:34.858Z,12.73
2022-11-10T01:16:05.672Z,12.72
2022-11-10T01:18:35.888Z,12.76
2022-11-10T01:21:04.893Z,12.72
2022-11-10T01:23:33.298Z,12.69
2022-11-10T01:26:03.113Z,12.67
2022-11-10T01:28:32.772Z,12.67
2022-11-10T01:31:01.278Z,12.68
2022-11-10T01:33:30.348Z,12.66
2022-11-10T01:36:00.204Z,12.66
2022-11-10T01:38:29.350Z,12.66
2022-11-10T01:40:58.267Z,12.67
2022-11-10T01:43:27.034Z,12.76
2022-11-10T01:45:55.696Z,12.71
2022-11-10T01:48:31.740Z,12.73
2022-11-10T01:51:03.856Z,12.61
2022-11-10T01:53:36.304Z,12.42
2022-11-10T01:56:05.546Z,12.48
2022-11-10T01:58:40.342Z,12.56
2022-11-10T02:01:08.956Z,12.58
2022-11-10T02:03:42.932Z,12.60
2022-11-10T02:06:12.702Z,12.64
2022-11-10T02:08:42.457Z,12.61
2022-11-10T02:11:11.010Z,12.61
2022-11-10T02:13:39.477Z,12.61
2022-11-10T02:16:08.399Z,12.64
2022-11-10T02:18:36.756Z,12.64
2022-11-10T02:21:06.960Z,12.60
2022-11-10T02:23:53.983Z,12.54
2022-11-10T02:26:25.702Z,12.50
2022-11-10T02:28:53.900Z,12.49
2022-11-10T02:31:22.110Z,12.53
2022-11-10T02:33:50.273Z,12.44
2022-11-10T02:36:19.813Z,12.52
2022-11-10T02:38:47.998Z,12.51
2022-11-10T02:41:16.143Z,12.43
2022-11-10T02:43:44.865Z,12.50
2022-11-10T02:46:13.140Z,12.55
2022-11-10T02:48:41.261Z,12.54
2022-11-10T02:51:09.808Z,12.55
2022-11-10T02:53:39.341Z,12.48
2022-11-10T02:56:08.077Z,12.58
2022-11-10T02:58:36.661Z,12.59
2022-11-10T03:01:07.365Z,12.56
2022-11-10T03:03:35.859Z,12.57
2022-11-10T03:06:04.279Z,12.46
2022-11-10T03:08:32.463Z,12.48
2022-11-10T03:11:02.138Z,12.44
2022-11-10T03:13:45.420Z,12.43
2022-11-10T03:16:19.432Z,12.38
2022-11-10T03:18:47.487Z,12.38
2022-11-10T03:21:15.643Z,12.39
2022-11-10T03:23:44.185Z,12.34
2022-11-10T03:26:14.448Z,12.30
2022-11-10T03:28:42.500Z,12.31
2022-11-10T03:31:10.648Z,12.29
2022-11-10T03:33:38.993Z,12.26
2022-11-10T03:36:07.578Z,12.24
2022-11-10T03:38:35.855Z,12.22
2022-11-10T03:41:18.772Z,12.19
2022-11-10T03:43:49.339Z,12.23
2022-11-10T03:46:18.027Z,12.21
2022-11-10T03:48:51.830Z,12.13
2022-11-10T03:51:21.567Z,12.20
2022-11-10T03:53:49.794Z,12.10
2022-11-10T03:56:17.985Z,12.09
2022-11-10T03:58:46.254Z,12.07
2022-11-10T04:01:15.759Z,12.15
2022-11-10T04:03:48.789Z,12.15
2022-11-10T04:06:35.936Z,12.12
2022-11-10T04:09:04.443Z,12.11
2022-11-10T04:11:50.934Z,12.12
2022-11-10T04:14:36.927Z,12.05
2022-11-10T04:17:07.024Z,12.01
2022-11-10T04:19:35.390Z,11.96
2022-11-10T04:22:03.499Z,12.03
2022-11-10T04:24:31.976Z,12.01
2022-11-10T04:27:00.015Z,11.99
2022-11-10T04:29:28.120Z,11.95
2022-11-10T04:31:56.479Z,11.96
2022-11-10T04:34:26.463Z,11.92
2022-11-10T04:36:54.579Z,11.94
2022-11-10T04:39:22.993Z,11.91
2022-11-10T04:41:50.980Z,11.90
2022-11-10T04:44:19.202Z,11.86
2022-11-10T04:46:47.420Z,11.82
2022-11-10T04:49:15.527Z,11.80
2022-11-10T04:51:45.029Z,11.80
2022-11-10T04:54:13.564Z,11.79
2022-11-10T04:56:41.583Z,11.80
2022-11-10T04:59:09.670Z,11.76
2022-11-10T05:01:38.112Z,11.74
2022-11-10T05:04:06.905Z,11.70
2022-11-10T05:06:35.066Z,11.73
2022-11-10T05:09:05.180Z,11.67
2022-11-10T05:11:33.387Z,11.69
2022-11-10T05:14:01.594Z,11.66
2022-11-10T05:16:29.848Z,11.68
2022-11-10T05:18:58.424Z,11.67
2022-11-10T05:21:26.567Z,11.70
2022-11-10T05:23:54.855Z,11.69
2022-11-10T05:26:24.372Z,11.66
2022-11-10T05:28:52.441Z,11.65
2022-11-10T05:31:20.685Z,11.71
2022-11-10T05:33:48.848Z,11.72
2022-11-10T05:36:16.918Z,11.63
2022-11-10T05:38:45.243Z,11.72
2022-11-10T05:41:13.443Z,11.68
2022-11-10T05:43:42.849Z,11.65
2022-11-10T05:46:11.176Z,11.71
2022-11-10T05:48:39.268Z,11.68
2022-11-10T05:51:08.403Z,11.63
2022-11-10T05:53:37.218Z,11.65
2022-11-10T05:56:05.757Z,11.65
2022-11-10T05:58:34.384Z,11.64
2022-11-10T06:01:04.135Z,11.61
2022-11-10T06:03:32.298Z,11.64
2022-11-10T06:06:00.788Z,11.61
2022-11-10T06:08:29.093Z,11.61
2022-11-10T06:10:57.249Z,11.57
2022-11-10T06:13:25.647Z,11.57
2022-11-10T06:15:54.104Z,11.56
2022-11-10T06:18:23.619Z,11.53
2022-11-10T06:20:51.701Z,11.55
2022-11-10T06:23:20.280Z,11.65
2022-11-10T06:25:48.536Z,11.58
2022-11-10T06:28:17.364Z,11.62
2022-11-10T06:30:45.625Z,11.63
2022-11-10T06:33:13.850Z,11.71
2022-11-10T06:35:43.329Z,11.61
2022-11-10T06:38:12.862Z,11.62
2022-11-10T06:40:41.075Z,11.69
2022-11-10T06:43:09.313Z,11.67
2022-11-10T06:45:40.897Z,11.66
2022-11-10T06:48:12.422Z,11.68
2022-11-10T06:50:40.822Z,11.77
2022-11-10T06:53:11.146Z,11.71
2022-11-10T06:55:39.505Z,11.73
2022-11-10T06:58:08.147Z,11.72
2022-11-10T07:00:37.127Z,11.77
2022-11-10T07:03:08.269Z,11.77
2022-11-10T07:05:38.210Z,11.77
2022-11-10T07:08:13.730Z,11.78
2022-11-10T07:10:42.092Z,11.76
2022-11-10T07:13:11.636Z,11.76
2022-11-10T07:15:39.703Z,11.78
2022-11-10T07:18:08.428Z,11.78
2022-11-10T07:20:37.091Z,11.71
2022-11-10T07:23:07.177Z,11.74
2022-11-10T07:25:38.393Z,11.76
2022-11-10T07:28:10.541Z,11.76
2022-11-10T07:30:41.536Z,11.84
2022-11-10T07:33:12.946Z,11.82
2022-11-10T07:35:41.190Z,11.85
2022-11-10T07:38:10.780Z,11.84
2022-11-10T07:40:40.301Z,11.85
2022-11-10T07:43:08.778Z,11.88
2022-11-10T07:45:37.093Z,11.90
2022-11-10T07:48:07.382Z,11.85
2022-11-10T07:50:35.873Z,11.82
2022-11-10T07:53:06.096Z,11.83
2022-11-10T07:55:35.191Z,11.81
2022-11-10T07:58:04.952Z,11.78
2022-11-10T08:00:33.665Z,11.75
2022-11-10T08:03:06.353Z,11.81
2022-11-10T08:05:35.724Z,11.85
2022-11-10T08:08:04.746Z,11.85
2022-11-10T08:10:34.196Z,11.94
2022-11-10T08:13:07.804Z,11.92
2022-11-10T08:15:37.188Z,11.99
2022-11-10T08:18:07.472Z,12.04
2022-11-10T08:20:36.594Z,12.03
2022-11-10T08:23:07.863Z,12.12
2022-11-10T08:25:38.048Z,12.09
2022-11-10T08:28:10.189Z,12.06
2022-11-10T08:30:40.413Z,12.11
2022-11-10T08:33:10.737Z,12.12
2022-11-10T08:35:40.664Z,12.22
2022-11-10T08:38:10.393Z,12.24
2022-11-10T08:40:38.663Z,12.28
2022-11-10T08:43:10.000Z,12.24
2022-11-10T08:45:39.645Z,12.35
2022-11-10T08:48:09.576Z,12.31
2022-11-10T08:50:38.398Z,12.42
2022-11-10T08:53:09.157Z,12.40
2022-11-10T08:55:37.492Z,12.45
2022-11-10T08:58:07.947Z,12.52
2022-11-10T09:00:38.019Z,12.55
2022-11-10T09:03:09.353Z,12.54
2022-11-10T09:05:38.414Z,12.59
2022-11-10T09:08:07.080Z,12.59
2022-11-10T09:10:38.246Z,12.63
2022-11-10T09:13:07.301Z,12.65
2022-11-10T09:15:37.412Z,12.65
2022-11-10T09:18:07.841Z,12.60
2022-11-10T09:20:37.710Z,12.66
2022-11-10T09:23:06.858Z,12.59
2022-11-10T09:25:37.972Z,12.64
2022-11-10T09:28:08.908Z,12.67
2022-11-10T09:30:41.402Z,12.69
2022-11-10T09:33:10.216Z,12.73
2022-11-10T09:35:38.381Z,12.69
2022-11-10T09:38:06.600Z,12.72
2022-11-10T09:40:48.426Z,12.75
2022-11-10T09:43:21.820Z,12.76
2022-11-10T09:45:55.615Z,12.74
2022-11-10T09:48:27.430Z,12.87
2022-11-10T09:51:00.104Z,13.16
2022-11-10T09:53:34.025Z,13.14
2022-11-10T09:56:04.888Z,13.02
2022-11-10T09:58:38.819Z,12.94
2022-11-10T10:01:24.206Z,12.99
2022-11-10T10:04:04.452Z,12.85
2022-11-10T10:07:04.893Z,12.80
2022-11-10T10:09:40.979Z,12.79
2022-11-10T10:12:23.470Z,12.79
2022-11-10T10:15:13.276Z,12.79
2022-11-10T10:17:54.442Z,12.81
2022-11-10T10:20:33.079Z,12.91
2022-11-10T10:23:17.220Z,12.93
2022-11-10T10:25:47.193Z,12.97
2022-11-10T10:28:22.212Z,13.04
2022-11-10T10:30:50.525Z,12.97
2022-11-10T10:33:22.049Z,13.05
2022-11-10T10:35:52.139Z,12.99
2022-11-10T10:38:26.273Z,13.05
2022-11-10T10:40:58.838Z,13.02
2022-11-10T10:43:27.235Z,13.10
2022-11-10T10:46:07.319Z,13.04
2022-11-10T10:48:36.956Z,13.09
2022-11-10T10:51:05.727Z,13.07
2022-11-10T10:53:34.235Z,13.13
2022-11-10T10:56:06.835Z,13.15
2022-11-10T10:58:51.127Z,13.16
2022-11-10T11:01:27.117Z,13.24
2022-11-10T11:03:56.819Z,13.24
2022-11-10T11:06:27.721Z,13.25
2022-11-10T11:09:01.699Z,13.28
2022-11-10T11:11:32.623Z,13.34
2022-11-10T11:14:20.116Z,13.25
2022-11-10T11:16:50.316Z,13.29
2022-11-10T11:19:22.928Z,13.31
2022-11-10T11:22:26.727Z,13.30
2022-11-10T11:24:59.592Z,13.31
2022-11-10T11:27:36.280Z,13.30
2022-11-10T11:30:12.319Z,13.28
2022-11-10T11:33:13.760Z,12.97
2022-11-10T11:35:50.980Z,13.22
2022-11-10T11:38:33.378Z,13.30
2022-11-10T11:41:17.350Z,13.33
2022-11-10T11:44:13.099Z,13.36
2022-11-10T11:46:49.379Z,13.39
2022-11-10T11:49:51.240Z,13.41
2022-11-10T11:52:29.731Z,13.41
2022-11-10T11:55:17.696Z,13.44
2022-11-10T11:57:57.655Z,13.40
2022-11-10T12:00:25.918Z,13.45
2022-11-10T12:03:11.623Z,13.40
2022-11-10T12:05:54.756Z,13.33
2022-11-10T12:08:38.890Z,13.36
2022-11-10T12:11:15.542Z,13.37
2022-11-10T12:13:56.445Z,13.35
2022-11-10T12:16:28.733Z,13.37
2022-11-10T12:19:06.089Z,13.37
2022-11-10T12:21:44.082Z,13.34
2022-11-10T12:24:35.659Z,13.33
2022-11-10T12:27:14.081Z,13.32
2022-11-10T12:29:46.337Z,13.35
2022-11-10T12:32:21.849Z,13.22
2022-11-10T12:34:55.580Z,13.29
2022-11-10T12:37:30.366Z,13.34
2022-11-10T12:40:06.781Z,13.33
2022-11-10T12:42:38.595Z,13.32
2022-11-10T12:45:09.117Z,13.38
2022-11-10T12:47:44.168Z,13.32
2022-11-10T12:50:29.336Z,13.22
2022-11-10T12:53:02.976Z,13.27
2022-11-10T12:55:40.742Z,13.30
2022-11-10T12:58:13.257Z,13.33
2022-11-10T13:00:44.738Z,13.38
2022-11-10T13:03:25.701Z,13.38
2022-11-10T13:05:58.506Z,13.43
2022-11-10T13:08:33.235Z,13.41
2022-11-10T13:11:07.455Z,13.40
2022-11-10T13:13:45.945Z,13.37
2022-11-10T13:16:49.724Z,13.36
2022-11-10T13:19:52.125Z,13.35
2022-11-10T13:22:37.536Z,13.33
2022-11-10T13:25:43.616Z,13.27
2022-11-10T13:28:13.469Z,13.25
2022-11-10T13:30:45.729Z,13.11
2022-11-10T13:33:38.615Z,12.95
2022-11-10T13:36:09.171Z,12.95
2022-11-10T13:38:40.244Z,12.90
2022-11-10T13:41:21.191Z,12.83
2022-11-10T13:43:53.458Z,12.75
2022-11-10T13:46:32.456Z,12.78
2022-11-10T13:49:28.365Z,12.70
2022-11-10T13:52:07.217Z,12.68
2022-11-10T13:55:00.973Z,12.63
2022-11-10T13:57:32.977Z,12.60
2022-11-10T14:00:09.215Z,12.67
2022-11-10T14:02:52.529Z,12.56
2022-11-10T14:06:05.760Z,12.52
2022-11-10T14:08:42.391Z,12.54
2022-11-10T14:11:22.458Z,12.55
2022-11-10T14:13:57.800Z,12.50
2022-11-10T14:16:31.866Z,12.53
2022-11-10T14:19:05.887Z,12.55
2022-11-10T14:21:40.337Z,12.58
2022-11-10T14:24:23.726Z,12.57
2022-11-10T14:26:55.563Z,12.57
2022-11-10T14:29:31.723Z,12.46
2022-11-10T14:32:05.406Z,12.53
2022-11-10T14:34:43.646Z,12.51
2022-11-10T14:37:24.719Z,12.42
2022-11-10T14:39:56.285Z,12.56
2022-11-10T14:42:26.614Z,12.51
2022-11-10T14:45:07.917Z,12.51
2022-11-10T14:47:38.009Z,12.55
2022-11-10T14:50:20.511Z,12.58
2022-11-10T14:52:52.261Z,12.52
2022-11-10T14:55:24.832Z,12.53
2022-11-10T14:57:56.199Z,12.53
2022-11-10T15:00:26.875Z,12.53
2022-11-10T15:02:59.731Z,12.50
2022-11-10T15:05:31.159Z,12.47
2022-11-10T15:07:59.902Z,12.56
2022-11-10T15:10:43.701Z,12.54
2022-11-10T15:13:21.367Z,12.55
2022-11-10T15:15:49.843Z,12.57
2022-11-10T15:18:28.229Z,12.52
2022-11-10T15:21:02.854Z,12.55
2022-11-10T15:23:34.094Z,12.61
2022-11-10T15:26:02.849Z,12.60
2022-11-10T15:28:33.314Z,12.62
2022-11-10T15:31:05.556Z,12.59
2022-11-10T15:33:37.410Z,12.56
2022-11-10T15:36:17.055Z,12.69
2022-11-10T15:38:45.566Z,12.71
2022-11-10T15:41:16.722Z,12.73
2022-11-10T15:43:44.803Z,12.75
2022-11-10T15:46:18.382Z,12.81
2022-11-10T15:48:50.258Z,12.75
2022-11-10T15:51:25.823Z,12.81
2022-11-10T15:53:54.966Z,12.85
2022-11-10T15:56:25.019Z,12.89
2022-11-10T15:59:00.709Z,12.95
2022-11-10T16:01:31.721Z,13.05
2022-11-10T16:04:01.435Z,12.99
2022-11-10T16:06:30.675Z,12.99
2022-11-10T16:08:59.199Z,13.08
2022-11-10T16:11:31.586Z,13.00
2022-11-10T16:14:00.018Z,13.07
2022-11-10T16:16:28.463Z,13.07
2022-11-10T16:18:56.502Z,13.09
2022-11-10T16:21:27.197Z,13.02
2022-11-10T16:23:55.318Z,13.08
2022-11-10T16:26:27.010Z,13.04
2022-11-10T16:28:55.243Z,13.04
2022-11-10T16:31:24.048Z,13.08
2022-11-10T16:33:52.320Z,13.13
2022-11-10T16:36:27.880Z,13.07
2022-11-10T16:38:56.741Z,13.13
2022-11-10T16:41:24.981Z,13.12
2022-11-10T16:43:53.225Z,13.17
2022-11-10T16:46:24.027Z,13.14
2022-11-10T16:48:54.487Z,13.17
2022-11-10T16:51:31.017Z,13.13
2022-11-10T16:53:59.874Z,13.24
2022-11-10T16:56:28.341Z,13.21
2022-11-10T16:58:56.496Z,13.22
2022-11-10T17:01:27.848Z,13.16
2022-11-10T17:03:58.573Z,13.12
2022-11-10T17:06:30.562Z,13.15
2022-11-10T17:09:04.204Z,13.23
2022-11-10T17:11:32.370Z,13.27
2022-11-10T17:14:00.726Z,13.30
2022-11-10T17:16:32.867Z,13.29
2022-11-10T17:19:02.855Z,13.33
2022-11-10T17:21:35.851Z,13.36
2022-11-10T17:24:04.886Z,13.38
2022-11-10T17:26:33.049Z,13.37
2022-11-10T17:29:01.208Z,13.41
2022-11-10T17:31:29.506Z,13.43
2022-11-10T17:33:57.883Z,13.38
2022-11-10T17:36:26.287Z,13.37
2022-11-10T17:38:56.043Z,13.40
2022-11-10T17:41:24.386Z,13.43
2022-11-10T17:43:52.670Z,13.47
2022-11-10T17:46:21.036Z,13.46
2022-11-10T17:48:50.595Z,13.46
2022-11-10T17:51:20.837Z,13.47
2022-11-10T17:53:50.797Z,13.44
2022-11-10T17:56:23.643Z,13.47
2022-11-10T17:58:53.769Z,13.49
2022-11-10T18:01:23.070Z,13.43
2022-11-10T18:03:57.578Z,13.43
2022-11-10T18:06:25.713Z,13.37
2022-11-10T18:08:53.960Z,13.45
2022-11-10T18:11:26.678Z,13.50
2022-11-10T18:13:54.961Z,13.50
2022-11-10T18:16:23.683Z,13.48
2022-11-10T18:18:52.013Z,13.48
2022-11-10T18:21:21.950Z,13.48
2022-11-10T18:23:50.008Z,13.48
2022-11-10T18:26:18.269Z,13.47
2022-11-10T18:28:50.122Z,13.48
2022-11-10T18:31:19.243Z,13.49
2022-11-10T18:33:51.161Z,13.49
2022-11-10T18:36:19.383Z,13.50
2022-11-10T18:38:47.567Z,13.49
2022-11-10T18:41:33.451Z,13.53
2022-11-10T18:44:03.066Z,13.50
2022-11-10T18:46:31.287Z,13.50
2022-11-10T18:48:59.530Z,13.56
2022-11-10T18:51:27.753Z,13.53
2022-11-10T18:53:56.328Z,13.54
2022-11-10T18:56:24.402Z,13.50
2022-11-10T18:58:56.871Z,13.51
2022-11-10T19:01:27.235Z,13.55
2022-11-10T19:03:56.175Z,13.55
2022-11-10T19:06:24.696Z,13.53
2022-11-10T19:08:52.926Z,13.58
2022-11-10T19:11:21.524Z,13.54
2022-11-10T19:13:50.170Z,13.51
2022-11-10T19:16:20.165Z,13.58
2022-11-10T19:18:49.979Z,13.57
2022-11-10T19:21:20.720Z,13.53
2022-11-10T19:23:49.390Z,13.54
2022-11-10T19:26:22.557Z,13.45
2022-11-10T19:28:53.490Z,13.56
2022-11-10T19:31:23.124Z,13.62
2022-11-10T19:33:54.887Z,13.56
2022-11-10T19:36:24.558Z,13.60
2022-11-10T19:38:54.474Z,13.57
2022-11-10T19:41:24.124Z,13.61
2022-11-10T19:43:52.587Z,13.60
2022-11-10T19:46:23.424Z,13.63
2022-11-10T19:48:53.059Z,13.62
2022-11-10T19:51:22.948Z,13.64
2022-11-10T19:53:58.562Z,13.55
2022-11-10T19:56:31.490Z,13.66
2022-11-10T19:59:00.377Z,13.73
2022-11-10T20:01:29.176Z,13.70
2022-11-10T20:04:01.128Z,13.72
2022-11-10T20:06:30.352Z,13.72
2022-11-10T20:08:58.455Z,13.70
2022-11-10T20:11:27.815Z,13.71
2022-11-10T20:13:57.509Z,13.73
2022-11-10T20:16:25.585Z,13.76
2022-11-10T20:18:53.910Z,13.74
2022-11-10T20:21:24.192Z,13.71
2022-11-10T20:23:56.686Z,13.72
2022-11-10T20:26:26.116Z,13.75
2022-11-10T20:28:54.257Z,13.80
2022-11-10T20:31:24.614Z,13.81
2022-11-10T20:33:54.637Z,13.82
2022-11-10T20:36:26.133Z,13.77
2022-11-10T20:38:58.589Z,13.71
2022-11-10T20:41:28.677Z,13.66
2022-11-10T20:43:57.062Z,13.70
2022-11-10T20:46:54.106Z,13.69
2022-11-10T20:49:13.735Z,13.62
2022-11-10T20:51:43.758Z,13.63
2022-11-10T20:54:11.951Z,13.66
2022-11-10T20:56:40.285Z,13.67
2022-11-10T20:59:08.484Z,13.68
2022-11-10T21:01:37.931Z,13.68
2022-11-10T21:04:06.925Z,13.67
2022-11-10T21:06:35.154Z,13.68
2022-11-10T21:09:05.786Z,13.73
2022-11-10T21:11:51.705Z,13.67
2022-11-10T21:14:20.361Z,13.69
2022-11-10T21:16:48.552Z,13.66
2022-11-10T21:19:16.803Z,13.66
2022-11-10T21:21:44.804Z,13.70
2022-11-10T21:24:14.359Z,13.70
2022-11-10T21:26:42.484Z,13.63
2022-11-10T21:29:11.695Z,13.68
2022-11-10T21:31:39.974Z,13.73
2022-11-10T21:34:08.396Z,13.68
2022-11-10T21:36:36.682Z,13.65
2022-11-10T21:39:05.003Z,13.67
2022-11-10T21:41:34.681Z,13.67
2022-11-10T21:44:02.757Z,13.71
2022-11-10T21:46:31.044Z,13.69
2022-11-10T21:49:02.011Z,13.74
2022-11-10T21:51:32.780Z,13.78
2022-11-10T21:54:01.043Z,13.74
2022-11-10T21:56:29.169Z,13.79
2022-11-10T21:58:59.085Z,13.76
2022-11-10T22:01:27.684Z,13.71
2022-11-10T22:03:55.861Z,13.72
2022-11-10T22:06:44.190Z,13.75
2022-11-10T22:09:12.369Z,13.73
2022-11-10T22:11:58.024Z,13.73
2022-11-10T22:14:45.164Z,13.78
2022-11-10T22:17:34.741Z,13.75
2022-11-10T22:20:02.890Z,13.76
2022-11-10T22:22:31.096Z,13.84
2022-11-10T22:24:59.227Z,13.76
2022-11-10T22:27:27.301Z,13.80
2022-11-10T22:29:56.893Z,13.76
2022-11-10T22:32:25.004Z,13.82
2022-11-10T22:34:53.181Z,13.76
2022-11-10T22:37:22.461Z,13.80
2022-11-10T22:40:08.252Z,13.81
2022-11-10T22:42:53.923Z,13.82
2022-11-10T22:45:23.432Z,13.80
2022-11-10T22:48:09.247Z,13.82
2022-11-10T22:50:37.319Z,13.82
2022-11-10T22:53:05.736Z,13.83
2022-11-10T22:55:33.845Z,13.81
2022-11-10T22:58:02.259Z,13.84
2022-11-10T23:00:31.905Z,13.85
2022-11-10T23:02:59.944Z,13.83
2022-11-10T23:05:28.151Z,13.86
2022-11-10T23:07:56.619Z,13.86
2022-11-10T23:10:24.807Z,13.91
2022-11-10T23:12:55.020Z,13.85
2022-11-10T23:15:23.473Z,13.90
2022-11-10T23:17:52.928Z,13.86
2022-11-10T23:20:21.076Z,13.86
2022-11-10T23:22:49.260Z,13.87
2022-11-10T23:25:17.355Z,13.88
2022-11-10T23:27:45.559Z,13.85
2022-11-10T23:30:14.071Z,13.89
2022-11-10T23:32:42.078Z,13.86
2022-11-10T23:35:11.745Z,13.93
2022-11-10T23:37:39.984Z,13.86
2022-11-10T23:40:09.203Z,13.90
2022-11-10T23:42:37.314Z,13.90
2022-11-10T23:45:09.401Z,13.87
2022-11-10T23:47:37.429Z,13.89
2022-11-10T23:50:06.234Z,13.83
2022-11-10T23:52:35.747Z,13.94
2022-11-10T23:55:03.840Z,13.92
2022-11-10T23:57:32.223Z,13.93
